Terminal Aerodrome Forecast
Issued by NWS Greer, SC

Current Version | Previous Version | Text Only | Print | Product List | Glossary On
Versions: 1 2 3 4 5 6 7 8 9 10 11 12 13 14 15
000
FTUS42 KGSP 191129
TAFGSP
TAF
KGSP 191129Z 1912/2012 VRB03KT P6SM SKC
     FM191500 29005KT P6SM FEW060 FEW250
     FM192100 26006KT P6SM SCT060 SCT250
     FM200300 28003KT P6SM FEW070=

USA.gov is the U.S. government's official web portal to all federal, state and local government web resources and services.